sensor_id;sensor_type;location;lat;lon;timestamp;P1;durP1;ratioP1;P2;durP2;ratioP2
17997;SDS011;9124;48.144;17.098;2022-08-14T00:00:47;15.77;;;14.45;;
17997;SDS011;9124;48.144;17.098;2022-08-14T00:04:24;17.13;;;13.80;;
17997;SDS011;9124;48.144;17.098;2022-08-14T00:08:01;16.17;;;14.77;;
17997;SDS011;9124;48.144;17.098;2022-08-14T00:11:38;14.57;;;13.38;;
17997;SDS011;9124;48.144;17.098;2022-08-14T00:15:23;14.85;;;13.60;;
17997;SDS011;9124;48.144;17.098;2022-08-14T00:19:09;14.95;;;13.80;;
17997;SDS011;9124;48.144;17.098;2022-08-14T00:22:46;14.18;;;13.27;;
17997;SDS011;9124;48.144;17.098;2022-08-14T00:26:23;15.73;;;14.50;;
17997;SDS011;9124;48.144;17.098;2022-08-14T00:30:00;13.98;;;12.98;;
17997;SDS011;9124;48.144;17.098;2022-08-14T00:33:37;15.10;;;13.82;;
17997;SDS011;9124;48.144;17.098;2022-08-14T00:37:14;14.55;;;13.13;;
17997;SDS011;9124;48.144;17.098;2022-08-14T00:40:51;14.15;;;13.13;;
17997;SDS011;9124;48.144;17.098;2022-08-14T00:44:28;15.27;;;14.15;;
17997;SDS011;9124;48.144;17.098;2022-08-14T00:48:05;14.23;;;13.02;;
17997;SDS011;9124;48.144;17.098;2022-08-14T00:51:42;15.05;;;13.82;;
17997;SDS011;9124;48.144;17.098;2022-08-14T00:55:19;14.90;;;13.63;;
17997;SDS011;9124;48.144;17.098;2022-08-14T00:58:56;14.48;;;13.45;;
17997;SDS011;9124;48.144;17.098;2022-08-14T01:02:34;15.00;;;13.75;;
17997;SDS011;9124;48.144;17.098;2022-08-14T01:06:13;15.18;;;13.90;;
17997;SDS011;9124;48.144;17.098;2022-08-14T01:09:53;14.95;;;13.88;;
17997;SDS011;9124;48.144;17.098;2022-08-14T01:13:35;14.75;;;13.75;;
17997;SDS011;9124;48.144;17.098;2022-08-14T01:17:14;15.40;;;14.23;;
17997;SDS011;9124;48.144;17.098;2022-08-14T01:20:51;14.48;;;13.32;;
17997;SDS011;9124;48.144;17.098;2022-08-14T01:24:39;14.88;;;13.45;;
17997;SDS011;9124;48.144;17.098;2022-08-14T01:28:18;14.45;;;13.35;;
17997;SDS011;9124;48.144;17.098;2022-08-14T01:31:57;15.23;;;14.02;;
17997;SDS011;9124;48.144;17.098;2022-08-14T01:35:39;14.02;;;12.95;;
17997;SDS011;9124;48.144;17.098;2022-08-14T01:39:21;15.50;;;14.30;;
17997;SDS011;9124;48.144;17.098;2022-08-14T01:42:58;15.20;;;14.20;;
17997;SDS011;9124;48.144;17.098;2022-08-14T01:46:35;19.25;;;14.27;;
17997;SDS011;9124;48.144;17.098;2022-08-14T01:50:15;15.30;;;14.20;;
17997;SDS011;9124;48.144;17.098;2022-08-14T01:53:57;17.10;;;15.63;;
17997;SDS011;9124;48.144;17.098;2022-08-14T01:57:42;15.63;;;14.40;;
17997;SDS011;9124;48.144;17.098;2022-08-14T02:01:20;15.23;;;14.02;;
17997;SDS011;9124;48.144;17.098;2022-08-14T02:04:58;17.92;;;16.30;;
17997;SDS011;9124;48.144;17.098;2022-08-14T02:08:36;16.88;;;15.48;;
17997;SDS011;9124;48.144;17.098;2022-08-14T02:12:14;16.10;;;14.63;;
17997;SDS011;9124;48.144;17.098;2022-08-14T02:15:51;16.75;;;15.20;;
17997;SDS011;9124;48.144;17.098;2022-08-14T02:19:30;18.20;;;16.50;;
17997;SDS011;9124;48.144;17.098;2022-08-14T02:23:10;17.05;;;15.77;;
17997;SDS011;9124;48.144;17.098;2022-08-14T02:26:47;18.08;;;16.42;;
17997;SDS011;9124;48.144;17.098;2022-08-14T02:30:25;16.80;;;15.40;;
17997;SDS011;9124;48.144;17.098;2022-08-14T02:34:07;17.20;;;15.57;;
17997;SDS011;9124;48.144;17.098;2022-08-14T02:37:46;15.75;;;14.55;;
17997;SDS011;9124;48.144;17.098;2022-08-14T02:41:25;16.98;;;15.48;;
17997;SDS011;9124;48.144;17.098;2022-08-14T02:45:02;16.92;;;15.40;;
17997;SDS011;9124;48.144;17.098;2022-08-14T02:48:41;16.67;;;15.38;;
17997;SDS011;9124;48.144;17.098;2022-08-14T02:52:18;17.50;;;15.90;;
17997;SDS011;9124;48.144;17.098;2022-08-14T02:55:55;15.60;;;14.60;;
17997;SDS011;9124;48.144;17.098;2022-08-14T02:59:33;15.88;;;14.48;;
17997;SDS011;9124;48.144;17.098;2022-08-14T03:03:12;15.68;;;14.60;;
17997;SDS011;9124;48.144;17.098;2022-08-14T03:06:48;16.55;;;15.32;;
17997;SDS011;9124;48.144;17.098;2022-08-14T03:10:26;16.17;;;14.73;;
17997;SDS011;9124;48.144;17.098;2022-08-14T03:14:02;15.65;;;14.43;;
17997;SDS011;9124;48.144;17.098;2022-08-14T03:17:39;15.40;;;14.23;;
17997;SDS011;9124;48.144;17.098;2022-08-14T03:21:17;15.95;;;14.70;;
17997;SDS011;9124;48.144;17.098;2022-08-14T03:24:55;15.43;;;14.35;;
17997;SDS011;9124;48.144;17.098;2022-08-14T03:28:32;15.25;;;14.30;;
17997;SDS011;9124;48.144;17.098;2022-08-14T03:32:09;15.35;;;14.18;;
17997;SDS011;9124;48.144;17.098;2022-08-14T03:35:47;15.20;;;14.00;;
17997;SDS011;9124;48.144;17.098;2022-08-14T03:39:25;15.15;;;14.13;;
17997;SDS011;9124;48.144;17.098;2022-08-14T03:43:02;14.82;;;13.73;;
17997;SDS011;9124;48.144;17.098;2022-08-14T03:46:40;15.98;;;14.57;;
17997;SDS011;9124;48.144;17.098;2022-08-14T03:50:17;15.77;;;14.57;;
17997;SDS011;9124;48.144;17.098;2022-08-14T03:53:56;14.65;;;13.38;;
17997;SDS011;9124;48.144;17.098;2022-08-14T03:57:35;14.68;;;13.50;;
17997;SDS011;9124;48.144;17.098;2022-08-14T04:01:16;14.18;;;13.20;;
17997;SDS011;9124;48.144;17.098;2022-08-14T04:04:56;16.25;;;15.10;;
17997;SDS011;9124;48.144;17.098;2022-08-14T04:08:34;16.63;;;15.30;;
17997;SDS011;9124;48.144;17.098;2022-08-14T04:12:12;16.35;;;15.15;;
17997;SDS011;9124;48.144;17.098;2022-08-14T04:15:49;15.15;;;13.73;;
17997;SDS011;9124;48.144;17.098;2022-08-14T04:19:26;15.93;;;14.73;;
17997;SDS011;9124;48.144;17.098;2022-08-14T04:23:03;16.13;;;14.65;;
17997;SDS011;9124;48.144;17.098;2022-08-14T04:26:42;16.17;;;14.77;;
17997;SDS011;9124;48.144;17.098;2022-08-14T04:30:22;15.73;;;14.27;;
17997;SDS011;9124;48.144;17.098;2022-08-14T04:34:03;15.07;;;13.90;;
17997;SDS011;9124;48.144;17.098;2022-08-14T04:37:41;16.13;;;14.93;;
17997;SDS011;9124;48.144;17.098;2022-08-14T04:41:36;17.10;;;15.57;;
17997;SDS011;9124;48.144;17.098;2022-08-14T04:45:32;17.02;;;15.80;;
17997;SDS011;9124;48.144;17.098;2022-08-14T04:49:11;16.83;;;15.52;;
17997;SDS011;9124;48.144;17.098;2022-08-14T04:52:48;16.45;;;15.15;;
17997;SDS011;9124;48.144;17.098;2022-08-14T04:56:25;17.67;;;16.30;;
17997;SDS011;9124;48.144;17.098;2022-08-14T05:00:04;17.38;;;15.88;;
17997;SDS011;9124;48.144;17.098;2022-08-14T05:03:42;18.33;;;16.73;;
17997;SDS011;9124;48.144;17.098;2022-08-14T05:07:19;19.67;;;18.00;;
17997;SDS011;9124;48.144;17.098;2022-08-14T05:10:57;21.45;;;19.48;;
17997;SDS011;9124;48.144;17.098;2022-08-14T05:14:35;19.75;;;17.70;;
17997;SDS011;9124;48.144;17.098;2022-08-14T05:18:13;19.05;;;17.58;;
17997;SDS011;9124;48.144;17.098;2022-08-14T05:21:51;20.23;;;18.63;;
17997;SDS011;9124;48.144;17.098;2022-08-14T05:25:33;20.48;;;18.55;;
17997;SDS011;9124;48.144;17.098;2022-08-14T05:29:11;19.60;;;18.02;;
17997;SDS011;9124;48.144;17.098;2022-08-14T05:32:48;18.95;;;17.55;;
17997;SDS011;9124;48.144;17.098;2022-08-14T05:36:25;20.58;;;18.77;;
17997;SDS011;9124;48.144;17.098;2022-08-14T05:40:02;20.95;;;18.95;;
17997;SDS011;9124;48.144;17.098;2022-08-14T05:43:39;18.95;;;17.23;;
17997;SDS011;9124;48.144;17.098;2022-08-14T05:47:18;19.58;;;17.80;;
17997;SDS011;9124;48.144;17.098;2022-08-14T05:50:55;18.63;;;16.85;;
17997;SDS011;9124;48.144;17.098;2022-08-14T05:54:31;17.67;;;16.23;;
17997;SDS011;9124;48.144;17.098;2022-08-14T05:58:08;16.70;;;15.48;;
17997;SDS011;9124;48.144;17.098;2022-08-14T06:01:45;15.48;;;14.38;;
17997;SDS011;9124;48.144;17.098;2022-08-14T06:05:22;16.85;;;15.75;;
17997;SDS011;9124;48.144;17.098;2022-08-14T06:09:00;17.40;;;16.05;;
17997;SDS011;9124;48.144;17.098;2022-08-14T06:12:37;16.35;;;15.15;;
17997;SDS011;9124;48.144;17.098;2022-08-14T06:16:14;16.23;;;14.85;;
17997;SDS011;9124;48.144;17.098;2022-08-14T06:19:52;17.40;;;15.65;;
17997;SDS011;9124;48.144;17.098;2022-08-14T06:23:29;17.85;;;16.25;;
17997;SDS011;9124;48.144;17.098;2022-08-14T06:27:06;16.35;;;15.20;;
17997;SDS011;9124;48.144;17.098;2022-08-14T06:30:42;16.15;;;15.05;;
17997;SDS011;9124;48.144;17.098;2022-08-14T06:34:19;15.52;;;14.50;;
17997;SDS011;9124;48.144;17.098;2022-08-14T06:37:57;15.13;;;14.20;;
17997;SDS011;9124;48.144;17.098;2022-08-14T06:41:37;16.10;;;14.90;;
17997;SDS011;9124;48.144;17.098;2022-08-14T06:45:15;15.75;;;14.50;;
17997;SDS011;9124;48.144;17.098;2022-08-14T06:48:53;14.93;;;13.88;;
17997;SDS011;9124;48.144;17.098;2022-08-14T06:52:29;15.43;;;14.25;;
17997;SDS011;9124;48.144;17.098;2022-08-14T06:56:07;14.50;;;13.18;;
17997;SDS011;9124;48.144;17.098;2022-08-14T06:59:43;13.45;;;12.68;;
17997;SDS011;9124;48.144;17.098;2022-08-14T07:03:20;13.73;;;12.73;;
17997;SDS011;9124;48.144;17.098;2022-08-14T07:07:15;12.32;;;11.50;;
17997;SDS011;9124;48.144;17.098;2022-08-14T07:10:53;11.15;;;10.45;;
17997;SDS011;9124;48.144;17.098;2022-08-14T07:14:33;10.77;;;10.00;;
17997;SDS011;9124;48.144;17.098;2022-08-14T07:18:10;10.10;;;9.60;;
17997;SDS011;9124;48.144;17.098;2022-08-14T07:21:47;10.30;;;9.80;;
17997;SDS011;9124;48.144;17.098;2022-08-14T07:25:26;11.13;;;10.07;;
17997;SDS011;9124;48.144;17.098;2022-08-14T07:29:03;10.18;;;9.57;;
17997;SDS011;9124;48.144;17.098;2022-08-14T07:32:40;10.23;;;9.63;;
17997;SDS011;9124;48.144;17.098;2022-08-14T07:36:17;10.50;;;9.60;;
17997;SDS011;9124;48.144;17.098;2022-08-14T07:39:56;9.43;;;8.93;;
17997;SDS011;9124;48.144;17.098;2022-08-14T07:43:32;11.75;;;10.82;;
17997;SDS011;9124;48.144;17.098;2022-08-14T07:47:10;12.90;;;11.90;;
17997;SDS011;9124;48.144;17.098;2022-08-14T07:50:47;11.90;;;11.10;;
17997;SDS011;9124;48.144;17.098;2022-08-14T07:54:26;11.50;;;10.85;;
17997;SDS011;9124;48.144;17.098;2022-08-14T07:58:02;10.70;;;10.13;;
17997;SDS011;9124;48.144;17.098;2022-08-14T08:01:40;10.93;;;10.23;;
17997;SDS011;9124;48.144;17.098;2022-08-14T08:05:18;9.35;;;8.82;;
17997;SDS011;9124;48.144;17.098;2022-08-14T08:08:57;9.35;;;8.82;;
17997;SDS011;9124;48.144;17.098;2022-08-14T08:12:35;8.70;;;8.30;;
17997;SDS011;9124;48.144;17.098;2022-08-14T08:16:12;10.07;;;9.23;;
17997;SDS011;9124;48.144;17.098;2022-08-14T08:19:49;8.80;;;8.40;;
17997;SDS011;9124;48.144;17.098;2022-08-14T08:23:27;9.20;;;8.27;;
17997;SDS011;9124;48.144;17.098;2022-08-14T08:27:15;8.13;;;7.70;;
17997;SDS011;9124;48.144;17.098;2022-08-14T08:30:56;7.28;;;6.93;;
17997;SDS011;9124;48.144;17.098;2022-08-14T08:34:41;7.95;;;7.45;;
17997;SDS011;9124;48.144;17.098;2022-08-14T08:38:23;8.63;;;8.20;;
17997;SDS011;9124;48.144;17.098;2022-08-14T08:42:02;9.48;;;8.77;;
17997;SDS011;9124;48.144;17.098;2022-08-14T08:45:38;9.63;;;8.90;;
17997;SDS011;9124;48.144;17.098;2022-08-14T08:49:15;9.85;;;9.05;;
17997;SDS011;9124;48.144;17.098;2022-08-14T08:52:55;9.77;;;9.18;;
17997;SDS011;9124;48.144;17.098;2022-08-14T09:00:18;9.85;;;9.25;;
17997;SDS011;9124;48.144;17.098;2022-08-14T09:04:02;9.48;;;8.82;;
17997;SDS011;9124;48.144;17.098;2022-08-14T09:07:39;9.68;;;9.13;;
17997;SDS011;9124;48.144;17.098;2022-08-14T09:11:16;8.68;;;8.18;;
17997;SDS011;9124;48.144;17.098;2022-08-14T09:14:53;7.28;;;6.95;;
17997;SDS011;9124;48.144;17.098;2022-08-14T09:18:31;8.82;;;8.27;;
17997;SDS011;9124;48.144;17.098;2022-08-14T09:22:09;9.05;;;8.43;;
17997;SDS011;9124;48.144;17.098;2022-08-14T09:25:50;8.95;;;8.40;;
17997;SDS011;9124;48.144;17.098;2022-08-14T09:29:29;10.18;;;9.27;;
17997;SDS011;9124;48.144;17.098;2022-08-14T09:33:10;11.25;;;10.50;;
17997;SDS011;9124;48.144;17.098;2022-08-14T09:37:44;10.25;;;9.38;;
17997;SDS011;9124;48.144;17.098;2022-08-14T09:45:32;9.88;;;9.05;;
17997;SDS011;9124;48.144;17.098;2022-08-14T09:49:11;10.07;;;9.38;;
17997;SDS011;9124;48.144;17.098;2022-08-14T09:52:49;9.27;;;8.77;;
17997;SDS011;9124;48.144;17.098;2022-08-14T09:56:44;8.38;;;7.78;;
17997;SDS011;9124;48.144;17.098;2022-08-14T10:00:32;7.20;;;6.72;;
17997;SDS011;9124;48.144;17.098;2022-08-14T10:04:19;7.50;;;6.53;;
17997;SDS011;9124;48.144;17.098;2022-08-14T10:08:00;6.88;;;6.43;;
17997;SDS011;9124;48.144;17.098;2022-08-14T10:11:39;6.38;;;5.78;;
17997;SDS011;9124;48.144;17.098;2022-08-14T10:15:21;6.78;;;6.30;;
17997;SDS011;9124;48.144;17.098;2022-08-14T10:19:10;6.32;;;6.03;;
17997;SDS011;9124;48.144;17.098;2022-08-14T10:22:48;6.80;;;6.50;;
17997;SDS011;9124;48.144;17.098;2022-08-14T10:26:25;6.28;;;5.97;;
17997;SDS011;9124;48.144;17.098;2022-08-14T10:30:02;6.72;;;6.20;;
17997;SDS011;9124;48.144;17.098;2022-08-14T10:37:40;7.65;;;6.97;;
17997;SDS011;9124;48.144;17.098;2022-08-14T10:41:22;7.97;;;7.47;;
17997;SDS011;9124;48.144;17.098;2022-08-14T10:45:20;8.32;;;7.60;;
17997;SDS011;9124;48.144;17.098;2022-08-14T10:49:00;8.20;;;7.60;;
17997;SDS011;9124;48.144;17.098;2022-08-14T10:52:37;8.20;;;7.68;;
17997;SDS011;9124;48.144;17.098;2022-08-14T10:56:14;8.48;;;7.97;;
17997;SDS011;9124;48.144;17.098;2022-08-14T10:59:52;8.35;;;7.85;;
17997;SDS011;9124;48.144;17.098;2022-08-14T11:03:38;8.77;;;8.38;;
17997;SDS011;9124;48.144;17.098;2022-08-14T11:07:17;10.05;;;9.45;;
17997;SDS011;9124;48.144;17.098;2022-08-14T11:10:56;9.68;;;9.05;;
17997;SDS011;9124;48.144;17.098;2022-08-14T11:14:35;9.18;;;8.40;;
17997;SDS011;9124;48.144;17.098;2022-08-14T11:18:13;9.35;;;8.57;;
17997;SDS011;9124;48.144;17.098;2022-08-14T11:21:50;8.57;;;8.10;;
17997;SDS011;9124;48.144;17.098;2022-08-14T11:25:29;9.18;;;8.57;;
17997;SDS011;9124;48.144;17.098;2022-08-14T11:29:06;8.63;;;8.02;;
17997;SDS011;9124;48.144;17.098;2022-08-14T11:32:46;8.82;;;8.07;;
17997;SDS011;9124;48.144;17.098;2022-08-14T11:36:25;9.55;;;8.63;;
17997;SDS011;9124;48.144;17.098;2022-08-14T11:40:03;9.10;;;8.13;;
17997;SDS011;9124;48.144;17.098;2022-08-14T11:43:50;8.68;;;8.00;;
17997;SDS011;9124;48.144;17.098;2022-08-14T11:47:27;8.80;;;8.30;;
17997;SDS011;9124;48.144;17.098;2022-08-14T11:51:11;8.25;;;7.75;;
17997;SDS011;9124;48.144;17.098;2022-08-14T11:54:56;8.68;;;7.97;;
17997;SDS011;9124;48.144;17.098;2022-08-14T11:58:34;8.23;;;7.63;;
17997;SDS011;9124;48.144;17.098;2022-08-14T12:02:13;11.98;;;7.80;;
17997;SDS011;9124;48.144;17.098;2022-08-14T12:05:52;9.27;;;8.27;;
17997;SDS011;9124;48.144;17.098;2022-08-14T12:09:42;8.50;;;7.90;;
17997;SDS011;9124;48.144;17.098;2022-08-14T12:13:20;8.73;;;8.20;;
17997;SDS011;9124;48.144;17.098;2022-08-14T12:16:59;9.43;;;8.68;;
17997;SDS011;9124;48.144;17.098;2022-08-14T12:20:41;7.95;;;7.55;;
17997;SDS011;9124;48.144;17.098;2022-08-14T12:24:18;8.35;;;7.75;;
17997;SDS011;9124;48.144;17.098;2022-08-14T12:28:09;8.30;;;7.80;;
17997;SDS011;9124;48.144;17.098;2022-08-14T12:31:56;8.88;;;8.35;;
17997;SDS011;9124;48.144;17.098;2022-08-14T12:35:36;8.98;;;8.18;;
17997;SDS011;9124;48.144;17.098;2022-08-14T12:39:21;8.75;;;8.25;;
17997;SDS011;9124;48.144;17.098;2022-08-14T12:43:01;8.65;;;8.05;;
17997;SDS011;9124;48.144;17.098;2022-08-14T12:46:39;8.93;;;8.45;;
17997;SDS011;9124;48.144;17.098;2022-08-14T12:50:16;8.68;;;8.18;;
17997;SDS011;9124;48.144;17.098;2022-08-14T12:53:54;8.20;;;7.60;;
17997;SDS011;9124;48.144;17.098;2022-08-14T12:57:36;8.48;;;7.88;;
17997;SDS011;9124;48.144;17.098;2022-08-14T13:01:19;7.55;;;7.13;;
17997;SDS011;9124;48.144;17.098;2022-08-14T13:05:02;8.30;;;7.80;;
17997;SDS011;9124;48.144;17.098;2022-08-14T13:08:39;8.30;;;7.85;;
17997;SDS011;9124;48.144;17.098;2022-08-14T13:12:19;9.00;;;8.07;;
17997;SDS011;9124;48.144;17.098;2022-08-14T13:16:02;7.78;;;7.35;;
17997;SDS011;9124;48.144;17.098;2022-08-14T13:19:41;7.57;;;7.15;;
17997;SDS011;9124;48.144;17.098;2022-08-14T13:23:20;8.90;;;8.20;;
17997;SDS011;9124;48.144;17.098;2022-08-14T13:27:00;7.95;;;7.30;;
17997;SDS011;9124;48.144;17.098;2022-08-14T13:30:39;7.43;;;6.82;;
17997;SDS011;9124;48.144;17.098;2022-08-14T13:34:21;7.80;;;7.30;;
17997;SDS011;9124;48.144;17.098;2022-08-14T13:38:00;7.88;;;7.18;;
17997;SDS011;9124;48.144;17.098;2022-08-14T13:41:38;7.70;;;7.30;;
17997;SDS011;9124;48.144;17.098;2022-08-14T13:45:15;7.70;;;7.10;;
17997;SDS011;9124;48.144;17.098;2022-08-14T13:48:54;8.07;;;7.57;;
17997;SDS011;9124;48.144;17.098;2022-08-14T13:52:44;7.85;;;7.25;;
17997;SDS011;9124;48.144;17.098;2022-08-14T13:56:28;7.80;;;7.30;;
17997;SDS011;9124;48.144;17.098;2022-08-14T14:00:10;8.27;;;7.55;;
17997;SDS011;9124;48.144;17.098;2022-08-14T14:03:48;7.85;;;7.35;;
17997;SDS011;9124;48.144;17.098;2022-08-14T14:07:29;7.68;;;7.07;;
17997;SDS011;9124;48.144;17.098;2022-08-14T14:11:09;8.15;;;7.45;;
17997;SDS011;9124;48.144;17.098;2022-08-14T14:14:48;8.20;;;7.60;;
17997;SDS011;9124;48.144;17.098;2022-08-14T14:18:26;8.70;;;7.65;;
17997;SDS011;9124;48.144;17.098;2022-08-14T14:22:03;7.80;;;7.28;;
17997;SDS011;9124;48.144;17.098;2022-08-14T14:25:43;10.02;;;7.25;;
17997;SDS011;9124;48.144;17.098;2022-08-14T14:29:21;7.28;;;6.68;;
17997;SDS011;9124;48.144;17.098;2022-08-14T14:33:01;8.27;;;7.55;;
17997;SDS011;9124;48.144;17.098;2022-08-14T14:36:40;7.43;;;6.97;;
17997;SDS011;9124;48.144;17.098;2022-08-14T14:40:19;8.05;;;7.55;;
17997;SDS011;9124;48.144;17.098;2022-08-14T14:43:57;7.38;;;6.97;;
17997;SDS011;9124;48.144;17.098;2022-08-14T14:47:35;7.85;;;7.05;;
17997;SDS011;9124;48.144;17.098;2022-08-14T14:51:12;8.60;;;7.82;;
17997;SDS011;9124;48.144;17.098;2022-08-14T14:54:50;7.30;;;6.90;;
17997;SDS011;9124;48.144;17.098;2022-08-14T14:58:27;7.20;;;6.65;;
17997;SDS011;9124;48.144;17.098;2022-08-14T15:02:06;7.75;;;7.05;;
17997;SDS011;9124;48.144;17.098;2022-08-14T15:05:43;7.20;;;6.70;;
17997;SDS011;9124;48.144;17.098;2022-08-14T15:09:20;7.68;;;7.07;;
17997;SDS011;9124;48.144;17.098;2022-08-14T15:12:58;7.30;;;6.63;;
17997;SDS011;9124;48.144;17.098;2022-08-14T15:16:35;7.97;;;7.38;;
17997;SDS011;9124;48.144;17.098;2022-08-14T15:20:14;7.85;;;7.38;;
17997;SDS011;9124;48.144;17.098;2022-08-14T15:23:51;7.38;;;6.78;;
17997;SDS011;9124;48.144;17.098;2022-08-14T15:27:28;7.32;;;6.93;;
17997;SDS011;9124;48.144;17.098;2022-08-14T15:31:06;7.72;;;7.20;;
17997;SDS011;9124;48.144;17.098;2022-08-14T15:34:43;6.93;;;6.53;;
17997;SDS011;9124;48.144;17.098;2022-08-14T15:38:20;8.30;;;7.60;;
17997;SDS011;9124;48.144;17.098;2022-08-14T15:41:57;7.55;;;6.75;;
17997;SDS011;9124;48.144;17.098;2022-08-14T15:45:39;7.78;;;7.07;;
17997;SDS011;9124;48.144;17.098;2022-08-14T15:49:17;7.60;;;6.93;;
17997;SDS011;9124;48.144;17.098;2022-08-14T15:52:53;7.72;;;7.18;;
17997;SDS011;9124;48.144;17.098;2022-08-14T15:56:31;6.43;;;6.10;;
17997;SDS011;9124;48.144;17.098;2022-08-14T16:00:08;7.13;;;6.60;;
17997;SDS011;9124;48.144;17.098;2022-08-14T16:04:04;7.38;;;6.88;;
17997;SDS011;9124;48.144;17.098;2022-08-14T16:07:44;7.35;;;6.65;;
17997;SDS011;9124;48.144;17.098;2022-08-14T16:11:22;7.68;;;6.97;;
17997;SDS011;9124;48.144;17.098;2022-08-14T16:15:00;7.55;;;6.93;;
17997;SDS011;9124;48.144;17.098;2022-08-14T16:18:37;6.82;;;6.45;;
17997;SDS011;9124;48.144;17.098;2022-08-14T16:22:16;7.47;;;6.97;;
17997;SDS011;9124;48.144;17.098;2022-08-14T16:25:54;8.18;;;7.53;;
17997;SDS011;9124;48.144;17.098;2022-08-14T16:29:38;7.20;;;6.70;;
17997;SDS011;9124;48.144;17.098;2022-08-14T16:33:16;6.70;;;6.28;;
17997;SDS011;9124;48.144;17.098;2022-08-14T16:36:56;7.28;;;6.70;;
17997;SDS011;9124;48.144;17.098;2022-08-14T16:40:33;7.75;;;7.18;;
17997;SDS011;9124;48.144;17.098;2022-08-14T16:44:11;7.40;;;6.68;;
17997;SDS011;9124;48.144;17.098;2022-08-14T16:47:52;7.18;;;6.68;;
17997;SDS011;9124;48.144;17.098;2022-08-14T16:51:30;7.20;;;6.50;;
17997;SDS011;9124;48.144;17.098;2022-08-14T16:55:08;7.85;;;7.10;;
17997;SDS011;9124;48.144;17.098;2022-08-14T16:58:47;7.05;;;6.15;;
17997;SDS011;9124;48.144;17.098;2022-08-14T17:02:35;8.20;;;6.90;;
17997;SDS011;9124;48.144;17.098;2022-08-14T17:06:14;6.65;;;6.30;;
17997;SDS011;9124;48.144;17.098;2022-08-14T17:10:15;7.22;;;6.00;;
17997;SDS011;9124;48.144;17.098;2022-08-14T17:13:51;9.15;;;6.50;;
17997;SDS011;9124;48.144;17.098;2022-08-14T17:21:14;7.78;;;7.28;;
17997;SDS011;9124;48.144;17.098;2022-08-14T17:24:59;8.02;;;7.43;;
17997;SDS011;9124;48.144;17.098;2022-08-14T17:28:35;7.90;;;7.38;;
17997;SDS011;9124;48.144;17.098;2022-08-14T17:32:13;7.78;;;7.00;;
17997;SDS011;9124;48.144;17.098;2022-08-14T17:36:35;11.18;;;6.90;;
17997;SDS011;9124;48.144;17.098;2022-08-14T17:39:59;8.13;;;7.43;;
17997;SDS011;9124;48.144;17.098;2022-08-14T17:43:37;8.15;;;7.55;;
17997;SDS011;9124;48.144;17.098;2022-08-14T17:47:15;7.05;;;6.53;;
17997;SDS011;9124;48.144;17.098;2022-08-14T17:50:52;7.93;;;7.40;;
17997;SDS011;9124;48.144;17.098;2022-08-14T17:54:44;8.10;;;7.32;;
17997;SDS011;9124;48.144;17.098;2022-08-14T17:58:24;7.55;;;6.95;;
17997;SDS011;9124;48.144;17.098;2022-08-14T18:02:03;7.85;;;7.32;;
17997;SDS011;9124;48.144;17.098;2022-08-14T18:05:41;12.20;;;7.60;;
17997;SDS011;9124;48.144;17.098;2022-08-14T18:09:20;8.00;;;7.50;;
17997;SDS011;9124;48.144;17.098;2022-08-14T18:12:59;8.43;;;7.80;;
17997;SDS011;9124;48.144;17.098;2022-08-14T18:16:37;8.25;;;7.75;;
17997;SDS011;9124;48.144;17.098;2022-08-14T18:20:20;8.35;;;7.55;;
17997;SDS011;9124;48.144;17.098;2022-08-14T18:24:01;7.65;;;7.25;;
17997;SDS011;9124;48.144;17.098;2022-08-14T18:27:46;7.93;;;7.43;;
17997;SDS011;9124;48.144;17.098;2022-08-14T18:35:02;8.10;;;7.50;;
17997;SDS011;9124;48.144;17.098;2022-08-14T18:38:42;7.95;;;7.32;;
17997;SDS011;9124;48.144;17.098;2022-08-14T18:45:59;9.35;;;8.00;;
17997;SDS011;9124;48.144;17.098;2022-08-14T18:53:53;8.00;;;7.50;;
17997;SDS011;9124;48.144;17.098;2022-08-14T18:58:21;8.50;;;7.95;;
17997;SDS011;9124;48.144;17.098;2022-08-14T19:01:31;7.63;;;6.93;;
17997;SDS011;9124;48.144;17.098;2022-08-14T19:05:08;8.50;;;7.80;;
17997;SDS011;9124;48.144;17.098;2022-08-14T19:08:46;8.98;;;7.95;;
17997;SDS011;9124;48.144;17.098;2022-08-14T19:16:35;9.27;;;8.02;;
17997;SDS011;9124;48.144;17.098;2022-08-14T19:20:14;8.38;;;7.53;;
17997;SDS011;9124;48.144;17.098;2022-08-14T19:28:13;8.35;;;7.68;;
17997;SDS011;9124;48.144;17.098;2022-08-14T19:31:53;11.23;;;7.85;;
17997;SDS011;9124;48.144;17.098;2022-08-14T19:39:08;8.70;;;8.05;;
17997;SDS011;9124;48.144;17.098;2022-08-14T19:42:45;8.60;;;7.82;;
17997;SDS011;9124;48.144;17.098;2022-08-14T19:46:24;8.55;;;7.80;;
17997;SDS011;9124;48.144;17.098;2022-08-14T19:50:04;11.57;;;8.65;;
17997;SDS011;9124;48.144;17.098;2022-08-14T19:53:53;7.97;;;7.50;;
17997;SDS011;9124;48.144;17.098;2022-08-14T19:57:33;9.20;;;8.52;;
17997;SDS011;9124;48.144;17.098;2022-08-14T20:01:10;8.63;;;7.90;;
17997;SDS011;9124;48.144;17.098;2022-08-14T20:04:47;8.70;;;7.85;;
17997;SDS011;9124;48.144;17.098;2022-08-14T20:08:33;9.02;;;8.38;;
17997;SDS011;9124;48.144;17.098;2022-08-14T20:12:17;7.97;;;7.28;;
17997;SDS011;9124;48.144;17.098;2022-08-14T20:15:56;8.63;;;7.65;;
17997;SDS011;9124;48.144;17.098;2022-08-14T20:19:34;9.10;;;8.20;;
17997;SDS011;9124;48.144;17.098;2022-08-14T20:23:12;8.60;;;7.90;;
17997;SDS011;9124;48.144;17.098;2022-08-14T20:31:33;8.77;;;8.07;;
17997;SDS011;9124;48.144;17.098;2022-08-14T20:34:52;9.05;;;8.35;;
17997;SDS011;9124;48.144;17.098;2022-08-14T20:38:29;8.80;;;8.05;;
17997;SDS011;9124;48.144;17.098;2022-08-14T20:42:07;8.52;;;7.93;;
17997;SDS011;9124;48.144;17.098;2022-08-14T20:46:15;8.40;;;7.80;;
17997;SDS011;9124;48.144;17.098;2022-08-14T20:50:11;9.40;;;8.32;;
17997;SDS011;9124;48.144;17.098;2022-08-14T20:53:54;7.72;;;7.13;;
17997;SDS011;9124;48.144;17.098;2022-08-14T20:57:38;10.45;;;8.50;;
17997;SDS011;9124;48.144;17.098;2022-08-14T21:04:56;8.10;;;7.53;;
17997;SDS011;9124;48.144;17.098;2022-08-14T21:08:35;8.50;;;7.90;;
17997;SDS011;9124;48.144;17.098;2022-08-14T21:12:13;8.25;;;7.55;;
17997;SDS011;9124;48.144;17.098;2022-08-14T21:15:51;7.75;;;7.25;;
17997;SDS011;9124;48.144;17.098;2022-08-14T21:19:29;8.43;;;7.82;;
17997;SDS011;9124;48.144;17.098;2022-08-14T21:23:07;9.02;;;8.15;;
17997;SDS011;9124;48.144;17.098;2022-08-14T21:26:45;8.52;;;7.93;;
17997;SDS011;9124;48.144;17.098;2022-08-14T21:30:22;8.82;;;8.30;;
17997;SDS011;9124;48.144;17.098;2022-08-14T21:33:59;8.55;;;7.70;;
17997;SDS011;9124;48.144;17.098;2022-08-14T21:37:38;8.30;;;7.80;;
17997;SDS011;9124;48.144;17.098;2022-08-14T21:41:20;7.85;;;7.38;;
17997;SDS011;9124;48.144;17.098;2022-08-14T21:45:00;8.15;;;7.43;;
17997;SDS011;9124;48.144;17.098;2022-08-14T21:48:36;9.00;;;8.18;;
17997;SDS011;9124;48.144;17.098;2022-08-14T21:52:14;8.95;;;8.35;;
17997;SDS011;9124;48.144;17.098;2022-08-14T21:55:53;8.18;;;7.68;;
17997;SDS011;9124;48.144;17.098;2022-08-14T21:59:31;8.40;;;7.80;;
17997;SDS011;9124;48.144;17.098;2022-08-14T22:03:10;8.80;;;8.13;;
17997;SDS011;9124;48.144;17.098;2022-08-14T22:06:52;9.90;;;8.80;;
17997;SDS011;9124;48.144;17.098;2022-08-14T22:10:29;8.82;;;8.23;;
17997;SDS011;9124;48.144;17.098;2022-08-14T22:14:06;9.32;;;8.73;;
17997;SDS011;9124;48.144;17.098;2022-08-14T22:17:44;9.00;;;8.40;;
17997;SDS011;9124;48.144;17.098;2022-08-14T22:21:21;9.13;;;8.43;;
17997;SDS011;9124;48.144;17.098;2022-08-14T22:24:59;9.18;;;8.57;;
17997;SDS011;9124;48.144;17.098;2022-08-14T22:28:36;8.32;;;7.82;;
17997;SDS011;9124;48.144;17.098;2022-08-14T22:32:12;9.30;;;8.60;;
17997;SDS011;9124;48.144;17.098;2022-08-14T22:35:49;8.60;;;8.00;;